| time (UTC) | temp F | wind direction | speed MPH | gust MPH | rain 1hr in | rain 24hr in | rain mn in | humidity % | barometer mb |
| 20260504214510 | 55 | 329 | 15.0 | 29.0 | 0.00 | 0.00 | 0.00 | 33 | 1028.1 |
| 20260504214006 | 53 | 289 | 12.0 | 35.0 | 0.00 | 0.00 | 0.00 | 32 | 1028.2 |
| 20260504213502 | 55 | 309 | 26.0 | 31.0 | 0.00 | 0.00 | 0.00 | 32 | 1028.1 |
| 20260504213000 | 56 | 309 | 13.0 | 21.0 | 0.00 | 0.00 | 0.00 | 33 | 1027.9 |
| 20260504212456 | 56 | 333 | 9.0 | 30.0 | 0.00 | 0.00 | 0.00 | 28 | 1028.1 |
| 20260504211953 | 55 | 301 | 27.0 | 31.0 | 0.00 | 0.00 | 0.00 | 30 | 1028.2 |
| 20260504211450 | 56 | 307 | 12.0 | 24.0 | 0.00 | 0.00 | 0.00 | 30 | 1028.2 |
| 20260504210947 | 55 | 328 | 14.0 | 23.0 | 0.00 | 0.00 | 0.00 | 29 | 1028.5 |
| 20260504210444 | 56 | 339 | 15.0 | 24.0 | 0.00 | 0.00 | 0.00 | 30 | 1028.1 |
| 20260504205941 | 57 | 304 | 12.0 | 13.0 | 0.00 | 0.00 | 0.00 | 30 | 1028.5 |
| 20260504205438 | 55 | 300 | 18.0 | 29.0 | 0.00 | 0.00 | 0.00 | 28 | 1028.6 |
| 20260504204937 | 54 | 337 | 11.0 | 19.0 | 0.00 | 0.00 | 0.00 | 31 | 1028.5 |
| 20260504204434 | 54 | 306 | 8.0 | 16.0 | 0.00 | 0.00 | 0.00 | 30 | 1028.2 |
| 20260504203934 | 54 | 338 | 14.0 | 18.0 | 0.00 | 0.00 | 0.00 | 30 | 1028.5 |
| 20260504203431 | 54 | 336 | 15.0 | 19.0 | 0.00 | 0.00 | 0.00 | 30 | 1028.5 |
| 20260504202927 | 56 | 341 | 9.0 | 24.0 | 0.00 | 0.00 | 0.00 | 27 | 1028.3 |
| 20260504202423 | 56 | 332 | 6.0 | 20.0 | 0.00 | 0.00 | 0.00 | 27 | 1028.7 |
| 20260504201920 | 54 | 333 | 11.0 | 16.0 | 0.00 | 0.00 | 0.00 | 28 | 1028.9 |
| 20260504201418 | 55 | 337 | 12.0 | 23.0 | 0.00 | 0.00 | 0.00 | 29 | 1028.7 |
| 20260504200915 | 53 | 347 | 17.0 | 30.0 | 0.00 | 0.00 | 0.00 | 31 | 1028.3 |
| 20260504200411 | 54 | 329 | 5.0 | 20.0 | 0.00 | 0.00 | 0.00 | 28 | 1029.0 |
| 20260504195908 | 52 | 18 | 17.0 | 24.0 | 0.00 | 0.00 | 0.00 | 30 | 1028.6 |
| 20260504195404 | 52 | 340 | 14.0 | 28.0 | 0.00 | 0.00 | 0.00 | 31 | 1028.9 |
| 20260504194901 | 53 | 316 | 5.0 | 23.0 | 0.00 | 0.00 | 0.00 | 32 | 1028.9 |
| 20260504194356 | 53 | 346 | 23.0 | 26.0 | 0.00 | 0.00 | 0.00 | 32 | 1028.6 |
| 20260504193852 | 53 | 334 | 24.0 | 25.0 | 0.00 | 0.00 | 0.00 | 32 | 1029.1 |
| 20260504193350 | 52 | 353 | 23.0 | 25.0 | 0.00 | 0.00 | 0.00 | 34 | 1028.9 |
| 20260504192849 | 52 | 113 | 5.0 | 9.0 | 0.00 | 0.00 | 0.00 | 33 | 1029.0 |
| 20260504192346 | 51 | 128 | 7.0 | 17.0 | 0.00 | 0.00 | 0.00 | 34 | 1029.1 |
| 20260504191844 | 52 | 154 | 7.0 | 12.0 | 0.00 | 0.00 | 0.00 | 33 | 1029.3 |
| 20260504191342 | 51 | 185 | 4.0 | 9.0 | 0.00 | 0.00 | 0.00 | 31 | 1029.3 |
| 20260504190837 | 50 | 125 | 5.0 | 9.0 | 0.00 | 0.00 | 0.00 | 33 | 1029.4 |
| 20260504190333 | 50 | 160 | 5.0 | 12.0 | 0.00 | 0.00 | 0.00 | 34 | 1029.1 |
| 20260504185830 | 49 | 173 | 7.0 | 11.0 | 0.00 | 0.00 | 0.00 | 35 | 1029.5 |
| 20260504185327 | 49 | 137 | 3.0 | 9.0 | 0.00 | 0.00 | 0.00 | 36 | 1029.7 |
| 20260504184823 | 48 | 164 | 1.0 | 6.0 | 0.00 | 0.00 | 0.00 | 38 | 1029.7 |
| 20260504184319 | 48 | 158 | 7.0 | 17.0 | 0.00 | 0.00 | 0.00 | 34 | 1029.7 |
| 20260504183815 | 47 | 85 | 19.0 | 30.0 | 0.00 | 0.00 | 0.00 | 34 | 1029.8 |
| 20260504183312 | 45 | 166 | 6.0 | 13.0 | 0.00 | 0.00 | 0.00 | 42 | 1030.3 |
| 20260504182810 | 47 | 237 | 10.0 | 27.0 | 0.00 | 0.00 | 0.00 | 38 | 1029.8 |
| 20260504182307 | 48 | 234 | 24.0 | 24.0 | 0.00 | 0.00 | 0.00 | 34 | 1029.7 |
| 20260504181804 | 50 | 286 | 8.0 | 17.0 | 0.00 | 0.00 | 0.00 | 32 | 1029.7 |
| 20260504181301 | 50 | 308 | 5.0 | 14.0 | 0.00 | 0.00 | 0.00 | 29 | 1029.8 |
| 20260504180801 | 51 | 274 | 5.0 | 9.0 | 0.00 | 0.00 | 0.00 | 32 | 1029.8 |
| 20260504180259 | 51 | 279 | 5.0 | 9.0 | 0.00 | 0.00 | 0.00 | 31 | 1029.7 |
| 20260504175756 | 51 | 307 | 7.0 | 18.0 | 0.00 | 0.00 | 0.00 | 30 | 1029.8 |
| 20260504175253 | 53 | 257 | 0.0 | 4.0 | 0.00 | 0.00 | 0.00 | 28 | 1029.8 |
| 20260504174751 | 54 | 291 | 5.0 | 12.0 | 0.00 | 0.00 | 0.00 | 30 | 1029.9 |
| 20260504174249 | 51 | 27 | 9.0 | 15.0 | 0.00 | 0.00 | 0.00 | 33 | 1029.8 |
| 20260504173745 | 53 | 341 | 3.0 | 15.0 | 0.00 | 0.00 | 0.00 | 34 | 1029.7 |
| 20260504173242 | 53 | 354 | 11.0 | 18.0 | 0.00 | 0.00 | 0.00 | 35 | 1029.8 |
| 20260504172739 | 52 | 196 | 3.0 | 11.0 | 0.00 | 0.00 | 0.00 | 31 | 1029.9 |
| 20260504172235 | 52 | 339 | 4.0 | 7.0 | 0.00 | 0.00 | 0.00 | 31 | 1029.9 |
| 20260504171731 | 52 | 318 | 7.0 | 13.0 | 0.00 | 0.00 | 0.00 | 32 | 1029.8 |
| 20260504171228 | 52 | 334 | 5.0 | 7.0 | 0.00 | 0.00 | 0.00 | 33 | 1029.9 |
| 20260504170725 | 51 | 301 | 1.0 | 13.0 | 0.00 | 0.00 | 0.00 | 35 | 1030.1 |
| 20260504170223 | 52 | 317 | 4.0 | 12.0 | 0.00 | 0.00 | 0.00 | 34 | 1030.2 |
| 20260504160141 | 49 | 307 | 9.0 | 14.0 | 0.00 | 0.00 | 0.00 | 39 | 1029.9 |
| 20260504151108 | 46 | 247 | 10.0 | 15.0 | 0.00 | 0.00 | 0.00 | 40 | 1030.5 |
| 20260504150606 | 46 | 253 | 13.0 | 13.0 | 0.00 | 0.00 | 0.00 | 39 | 1030.2 |
| 20260504141032 | 43 | 244 | 11.0 | 16.0 | 0.00 | 0.00 | 0.00 | 39 | 1030.2 |
| 20260504140528 | 43 | 252 | 16.0 | 18.0 | 0.00 | 0.00 | 0.00 | 39 | 1030.5 |
| 20260504130453 | 42 | 251 | 12.0 | 21.0 | 0.00 | 0.00 | 0.00 | 37 | 1030.2 |
| 20260504110335 | 46 | 86 | 1.0 | 3.0 | 0.00 | 0.00 | 0.00 | 29 | 1029.8 |
| 20260504100257 | 48 | 132 | 5.0 | 6.0 | 0.00 | 0.00 | 0.00 | 33 | 1030.1 |
| 20260504081650 | 48 | 114 | 5.0 | 6.0 | 0.00 | 0.00 | 0.00 | 32 | 1030.9 |
| 20260504081147 | 48 | 109 | 6.0 | 7.0 | 0.00 | 0.00 | 0.00 | 32 | 1030.6 |
| 20260504080643 | 48 | 97 | 7.0 | 7.0 | 0.00 | 0.00 | 0.00 | 32 | 1031.1 |
| 20260504080140 | 48 | 99 | 5.0 | 6.0 | 0.00 | 0.00 | 0.00 | 32 | 1030.9 |
| 20260504070108 | 48 | 92 | 9.0 | 9.0 | 0.00 | 0.00 | 0.00 | 30 | 1031.5 |
| 20260504050456 | 47 | 38 | 17.0 | 18.0 | 0.00 | 0.00 | 0.00 | 35 | 1031.9 |
| 20260504045953 | 47 | 35 | 13.0 | 17.0 | 0.00 | 0.00 | 0.00 | 36 | 1032.1 |
| 20260504045449 | 47 | 48 | 13.0 | 17.0 | 0.00 | 0.00 | 0.00 | 36 | 1032.1 |
| 20260504044945 | 47 | 44 | 15.0 | 18.0 | 0.00 | 0.00 | 0.00 | 37 | 1032.1 |
| 20260504044443 | 47 | 36 | 14.0 | 20.0 | 0.00 | 0.00 | 0.00 | 37 | 1032.1 |
| 20260504043940 | 47 | 43 | 18.0 | 21.0 | 0.00 | 0.00 | 0.00 | 37 | 1031.9 |
| 20260504043437 | 47 | 42 | 14.0 | 20.0 | 0.00 | 0.00 | 0.00 | 36 | 1031.9 |
| 20260504042934 | 47 | 44 | 18.0 | 20.0 | 0.00 | 0.00 | 0.00 | 35 | 1031.8 |
| 20260504042431 | 47 | 33 | 15.0 | 18.0 | 0.00 | 0.00 | 0.00 | 33 | 1032.2 |
| 20260504041927 | 48 | 30 | 16.0 | 18.0 | 0.00 | 0.00 | 0.00 | 29 | 1032.2 |
| 20260504041424 | 47 | 30 | 15.0 | 19.0 | 0.00 | 0.00 | 0.00 | 28 | 1032.1 |
| 20260504040920 | 48 | 28 | 14.0 | 22.0 | 0.00 | 0.00 | 0.00 | 27 | 1032.1 |
| 20260504040418 | 48 | 30 | 17.0 | 21.0 | 0.00 | 0.00 | 0.00 | 26 | 1032.2 |
| 20260504035913 | 48 | 22 | 16.0 | 20.0 | 0.00 | 0.00 | 0.00 | 26 | 1032.1 |
| 20260504035411 | 48 | 23 | 18.0 | 20.0 | 0.00 | 0.00 | 0.00 | 26 | 1032.1 |
| 20260504034908 | 48 | 21 | 16.0 | 20.0 | 0.00 | 0.00 | 0.00 | 25 | 1032.2 |
| 20260504034405 | 49 | 23 | 18.0 | 21.0 | 0.00 | 0.00 | 0.00 | 23 | 1031.9 |
| 20260504033902 | 49 | 21 | 19.0 | 24.0 | 0.00 | 0.00 | 0.00 | 23 | 1031.8 |
| 20260504033400 | 49 | 22 | 17.0 | 21.0 | 0.00 | 0.00 | 0.00 | 22 | 1031.8 |
| 20260504032856 | 49 | 20 | 21.0 | 24.0 | 0.00 | 0.00 | 0.00 | 21 | 1031.9 |
| 20260504032353 | 49 | 15 | 21.0 | 25.0 | 0.00 | 0.00 | 0.00 | 22 | 1031.9 |
| 20260504031850 | 49 | 16 | 19.0 | 23.0 | 0.00 | 0.00 | 0.00 | 22 | 1032.1 |
| 20260504031347 | 50 | 18 | 18.0 | 24.0 | 0.00 | 0.00 | 0.00 | 22 | 1031.8 |
| 20260504030843 | 50 | 14 | 18.0 | 24.0 | 0.00 | 0.00 | 0.00 | 23 | 1031.9 |
| 20260504030341 | 49 | 11 | 18.0 | 24.0 | 0.00 | 0.00 | 0.00 | 23 | 1031.8 |
| 20260504025837 | 50 | 15 | 23.0 | 25.0 | 0.00 | 0.00 | 0.00 | 23 | 1031.9 |
| 20260504025334 | 50 | 5 | 16.0 | 25.0 | 0.00 | 0.00 | 0.00 | 25 | 1031.8 |
| 20260504024831 | 50 | 4 | 17.0 | 23.0 | 0.00 | 0.00 | 0.00 | 24 | 1031.8 |
| 20260504024327 | 50 | 16 | 20.0 | 22.0 | 0.00 | 0.00 | 0.00 | 24 | 1031.9 |
| 20260504023824 | 50 | 3 | 15.0 | 21.0 | 0.00 | 0.00 | 0.00 | 25 | 1031.9 |
| 20260504023321 | 50 | 3 | 15.0 | 21.0 | 0.00 | 0.00 | 0.00 | 25 | 1031.8 |
| 20260504022816 | 50 | 341 | 16.0 | 21.0 | 0.00 | 0.00 | 0.00 | 24 | 1031.7 |
| 20260504022314 | 50 | 359 | 14.0 | 20.0 | 0.00 | 0.00 | 0.00 | 24 | 1032.1 |
| 20260504021809 | 50 | 0 | 16.0 | 23.0 | 0.00 | 0.00 | 0.00 | 24 | 1031.9 |
| 20260504021308 | 51 | 349 | 15.0 | 22.0 | 0.00 | 0.00 | 0.00 | 25 | 1031.9 |
| 20260504020759 | 51 | 345 | 15.0 | 23.0 | 0.00 | 0.00 | 0.00 | 25 | 1031.8 |
| 20260504020256 | 51 | 340 | 16.0 | 23.0 | 0.00 | 0.00 | 0.00 | 25 | 1032.1 |
| 20260504015752 | 51 | 342 | 20.0 | 23.0 | 0.00 | 0.00 | 0.00 | 27 | 1031.9 |
| 20260504015248 | 51 | 354 | 13.0 | 21.0 | 0.00 | 0.00 | 0.00 | 27 | 1031.9 |
| 20260504014744 | 51 | 337 | 16.0 | 18.0 | 0.00 | 0.00 | 0.00 | 27 | 1032.1 |
| 20260504014241 | 52 | 329 | 7.0 | 16.0 | 0.00 | 0.00 | 0.00 | 27 | 1031.9 |
| 20260504013738 | 52 | 331 | 13.0 | 21.0 | 0.00 | 0.00 | 0.00 | 26 | 1032.1 |
| 20260504013235 | 53 | 324 | 11.0 | 15.0 | 0.00 | 0.00 | 0.00 | 24 | 1032.1 |
| 20260504012732 | 54 | 329 | 7.0 | 15.0 | 0.00 | 0.00 | 0.00 | 23 | 1031.9 |
| 20260504012230 | 54 | 319 | 7.0 | 16.0 | 0.00 | 0.00 | 0.00 | 22 | 1032.3 |
| 20260504011727 | 54 | 304 | 12.0 | 17.0 | 0.00 | 0.00 | 0.00 | 21 | 1032.5 |
| 20260504011224 | 53 | 306 | 12.0 | 14.0 | 0.00 | 0.00 | 0.00 | 22 | 1032.5 |
| 20260504010720 | 54 | 306 | 6.0 | 19.0 | 0.00 | 0.00 | 0.00 | 22 | 1032.5 |
| 20260504010215 | 55 | 315 | 10.0 | 21.0 | 0.00 | 0.00 | 0.00 | 21 | 1032.6 |
| 20260504005712 | 55 | 299 | 5.0 | 15.0 | 0.00 | 0.00 | 0.00 | 21 | 1032.5 |
| 20260504005210 | 55 | 308 | 8.0 | 17.0 | 0.00 | 0.00 | 0.00 | 22 | 1032.6 |
| 20260504004707 | 55 | 322 | 6.0 | 17.0 | 0.00 | 0.00 | 0.00 | 21 | 1032.6 |
| 20260504004203 | 55 | 289 | 6.0 | 26.0 | 0.00 | 0.00 | 0.00 | 22 | 1032.9 |
| 20260504003700 | 56 | 308 | 8.0 | 22.0 | 0.00 | 0.00 | 0.00 | 21 | 1032.7 |
| 20260504003157 | 56 | 335 | 10.0 | 14.0 | 0.00 | 0.00 | 0.00 | 21 | 1032.9 |
| 20260504002653 | 56 | 315 | 13.0 | 16.0 | 0.00 | 0.00 | 0.00 | 22 | 1032.7 |
| 20260504002151 | 55 | 328 | 7.0 | 24.0 | 0.00 | 0.00 | 0.00 | 22 | 1032.7 |
| 20260504001649 | 56 | 293 | 8.0 | 15.0 | 0.00 | 0.00 | 0.00 | 22 | 1032.9 |
| 20260504001145 | 55 | 307 | 11.0 | 31.0 | 0.00 | 0.00 | 0.00 | 23 | 1032.9 |
| 20260504000642 | 55 | 302 | 13.0 | 23.0 | 0.00 | 0.00 | 0.00 | 23 | 1032.9 |
| 20260504000140 | 55 | 298 | 9.0 | 24.0 | 0.00 | 0.00 | 0.00 | 24 | 1032.6 |
| 20260503235638 | 54 | 295 | 17.0 | 24.0 | 0.00 | 0.00 | 0.00 | 23 | 1032.9 |
| 20260503235134 | 54 | 296 | 17.0 | 41.0 | 0.00 | 0.00 | 0.00 | 23 | 1032.6 |
| 20260503234632 | 55 | 292 | 8.0 | 28.0 | 0.00 | 0.00 | 0.00 | 23 | 1032.9 |
| 20260503234130 | 55 | 321 | 8.0 | 27.0 | 0.00 | 0.00 | 0.00 | 23 | 1032.7 |
| 20260503233627 | 55 | 333 | 16.0 | 22.0 | 0.00 | 0.00 | 0.00 | 23 | 1032.9 |
| 20260503233122 | 55 | 332 | 4.0 | 22.0 | 0.00 | 0.00 | 0.00 | 23 | 1033.0 |
| 20260503232619 | 54 | 333 | 8.0 | 21.0 | 0.00 | 0.00 | 0.00 | 24 | 1032.7 |
| 20260503232116 | 54 | 349 | 20.0 | 27.0 | 0.00 | 0.00 | 0.00 | 24 | 1032.5 |
| 20260503231615 | 55 | 330 | 11.0 | 13.0 | 0.00 | 0.00 | 0.00 | 25 | 1033.0 |
| 20260503231111 | 55 | 330 | 5.0 | 13.0 | 0.00 | 0.00 | 0.00 | 23 | 1033.0 |
| 20260503230609 | 54 | 332 | 6.0 | 25.0 | 0.00 | 0.00 | 0.00 | 24 | 1033.0 |
| 20260503230105 | 55 | 337 | 19.0 | 26.0 | 0.00 | 0.00 | 0.00 | 22 | 1032.6 |
| 20260503225603 | 56 | 333 | 16.0 | 23.0 | 0.00 | 0.00 | 0.00 | 22 | 1032.9 |
| 20260503225057 | 57 | 323 | 11.0 | 17.0 | 0.00 | 0.00 | 0.00 | 21 | 1032.9 |
| 20260503224555 | 56 | 322 | 7.0 | 22.0 | 0.00 | 0.00 | 0.00 | 24 | 1033.1 |
| 20260503224053 | 57 | 334 | 14.0 | 33.0 | 0.00 | 0.00 | 0.00 | 20 | 1032.9 |
| 20260503223550 | 57 | 320 | 14.0 | 26.0 | 0.00 | 0.00 | 0.00 | 19 | 1033.1 |
| 20260503223046 | 58 | 301 | 16.0 | 29.0 | 0.00 | 0.00 | 0.00 | 20 | 1033.1 |
| 20260503222544 | 58 | 332 | 20.0 | 21.0 | 0.00 | 0.00 | 0.00 | 21 | 1033.0 |
| 20260503222042 | 58 | 282 | 15.0 | 22.0 | 0.00 | 0.00 | 0.00 | 19 | 1033.0 |
| 20260503221539 | 57 | 308 | 15.0 | 21.0 | 0.00 | 0.00 | 0.00 | 20 | 1033.1 |
| 20260503221037 | 57 | 240 | 7.0 | 10.0 | 0.00 | 0.00 | 0.00 | 20 | 1033.3 |
| 20260503220533 | 59 | 275 | 4.0 | 16.0 | 0.00 | 0.00 | 0.00 | 20 | 1033.4 |
| 20260503220030 | 57 | 290 | 5.0 | 24.0 | 0.00 | 0.00 | 0.00 | 21 | 1033.4 |
| 20260503215527 | 57 | 304 | 16.0 | 22.0 | 0.00 | 0.00 | 0.00 | 20 | 1033.5 |
| 20260503215024 | 56 | 250 | 16.0 | 19.0 | 0.00 | 0.00 | 0.00 | 21 | 1033.4 |